createdAt,value
2023-03-31T00:02:17.777Z,50.88
2023-03-31T00:07:23.077Z,51.65
2023-03-31T00:12:28.409Z,52.15
2023-03-31T00:17:32.056Z,51.32
2023-03-31T00:22:35.724Z,51.94
2023-03-31T00:27:43.211Z,53.64
2023-03-31T00:32:46.911Z,53.09
2023-03-31T00:37:51.945Z,52.92
2023-03-31T00:42:58.235Z,53.51
2023-03-31T00:48:07.205Z,53.40
2023-03-31T00:53:13.652Z,53.25
2023-03-31T00:58:20.335Z,52.42
2023-03-31T01:03:24.247Z,53.49
2023-03-31T01:08:28.742Z,53.73
2023-03-31T01:13:35.775Z,54.67
2023-03-31T01:18:39.614Z,54.56
2023-03-31T01:24:20.581Z,55.72
2023-03-31T01:29:51.368Z,56.20
2023-03-31T01:35:21.394Z,54.87
2023-03-31T01:40:55.618Z,55.03
2023-03-31T01:46:03.873Z,55.99
2023-03-31T01:51:14.569Z,55.62
2023-03-31T01:56:24.609Z,57.63
2023-03-31T02:01:32.022Z,57.88
2023-03-31T02:06:38.573Z,57.63
2023-03-31T02:11:47.102Z,57.11
2023-03-31T02:16:55.700Z,58.09
2023-03-31T02:21:59.797Z,59.30
2023-03-31T02:27:08.201Z,59.35
2023-03-31T02:32:16.701Z,58.97
2023-03-31T02:37:20.459Z,58.81
2023-03-31T02:42:26.316Z,59.62
2023-03-31T02:47:30.174Z,59.58
2023-03-31T02:52:57.552Z,59.93
2023-03-31T02:58:27.757Z,59.60
2023-03-31T03:03:42.828Z,59.62
2023-03-31T03:09:02.621Z,60.14
2023-03-31T03:14:18.743Z,61.23
2023-03-31T03:19:24.560Z,60.81
2023-03-31T03:24:28.393Z,61.06
2023-03-31T03:29:36.739Z,61.77
2023-03-31T03:34:40.783Z,61.33
2023-03-31T03:39:44.472Z,61.43
2023-03-31T03:44:49.807Z,62.15
2023-03-31T03:49:53.462Z,62.54
2023-03-31T03:54:57.158Z,63.29
2023-03-31T04:00:02.416Z,64.68
2023-03-31T04:05:06.440Z,63.88
2023-03-31T04:10:10.880Z,64.04
2023-03-31T04:15:16.272Z,64.59
2023-03-31T04:20:20.066Z,64.27
2023-03-31T04:25:23.694Z,63.69
2023-03-31T04:30:29.219Z,63.60
2023-03-31T04:35:33.159Z,63.45
2023-03-31T04:40:36.863Z,63.42
2023-03-31T04:45:52.941Z,63.81
2023-03-31T04:51:03.264Z,63.99
2023-03-31T04:56:08.101Z,64.13
2023-03-31T05:01:13.907Z,64.51
2023-03-31T05:06:18.255Z,64.24
2023-03-31T05:11:21.945Z,64.36
2023-03-31T05:16:28.028Z,64.51
2023-03-31T05:21:31.777Z,64.46
2023-03-31T05:26:35.415Z,64.51
2023-03-31T05:31:40.694Z,64.91
2023-03-31T05:36:44.427Z,65.51
2023-03-31T05:41:48.070Z,65.69
2023-03-31T05:46:53.431Z,66.23
2023-03-31T05:51:57.061Z,65.97
2023-03-31T05:57:00.861Z,65.84
2023-03-31T06:02:06.298Z,66.72
2023-03-31T06:07:10.058Z,66.55
2023-03-31T06:12:14.402Z,66.78
2023-03-31T06:17:19.680Z,67.54
2023-03-31T06:22:23.343Z,67.12
2023-03-31T06:27:26.992Z,66.80
2023-03-31T06:32:32.322Z,67.10
2023-03-31T06:37:36.709Z,66.30
2023-03-31T06:42:40.343Z,66.08
2023-03-31T06:47:45.713Z,67.06
2023-03-31T06:52:49.398Z,67.68
2023-03-31T06:57:53.054Z,67.43
2023-03-31T07:02:58.506Z,68.26
2023-03-31T07:08:02.605Z,68.38
2023-03-31T07:13:06.369Z,69.19
2023-03-31T07:18:11.775Z,69.48
2023-03-31T07:23:15.511Z,69.73
2023-03-31T07:28:19.184Z,70.22
2023-03-31T07:33:24.492Z,71.14
2023-03-31T07:38:28.196Z,70.76
2023-03-31T07:43:31.867Z,71.52
2023-03-31T07:48:37.201Z,71.88
2023-03-31T07:53:40.850Z,72.38
2023-03-31T07:58:44.602Z,72.53
2023-03-31T08:03:50.532Z,73.91
2023-03-31T08:08:54.230Z,73.41
2023-03-31T08:13:58.065Z,73.32
2023-03-31T08:19:03.560Z,74.83
2023-03-31T08:24:07.433Z,74.95
2023-03-31T08:29:11.109Z,75.14
2023-03-31T08:34:16.416Z,75.78
2023-03-31T08:39:20.114Z,75.77
2023-03-31T08:44:31.880Z,76.61
2023-03-31T08:49:43.053Z,77.28
2023-03-31T08:54:50.488Z,76.34
2023-03-31T08:59:55.070Z,77.17
2023-03-31T09:05:29.224Z,78.41
2023-03-31T09:10:42.095Z,78.82
2023-03-31T09:15:49.665Z,77.25
2023-03-31T09:20:58.986Z,76.23
2023-03-31T09:26:05.125Z,76.10
2023-03-31T09:31:14.065Z,78.56
2023-03-31T09:36:21.116Z,77.16
2023-03-31T09:41:24.803Z,77.04
2023-03-31T09:46:32.080Z,78.07
2023-03-31T09:51:42.353Z,77.01
2023-03-31T09:56:50.702Z,78.09
2023-03-31T10:01:57.987Z,77.29
2023-03-31T10:07:05.827Z,78.32
2023-03-31T10:12:16.644Z,77.25
2023-03-31T10:17:21.205Z,77.83
2023-03-31T10:22:33.018Z,79.87
2023-03-31T10:27:40.059Z,79.07
2023-03-31T10:32:46.314Z,79.12
2023-03-31T10:37:57.614Z,78.46
2023-03-31T10:43:04.802Z,79.24
2023-03-31T10:48:19.564Z,79.11
2023-03-31T10:53:24.891Z,78.95
2023-03-31T10:58:54.786Z,80.78
2023-03-31T11:04:36.911Z,81.58
2023-03-31T11:09:56.249Z,81.23
2023-03-31T11:15:11.612Z,81.94
2023-03-31T11:20:26.134Z,82.06
2023-03-31T11:25:38.827Z,82.27
2023-03-31T11:30:47.497Z,81.85
2023-03-31T11:36:08.126Z,82.73
2023-03-31T11:41:16.550Z,83.11
2023-03-31T11:46:24.391Z,82.36
2023-03-31T11:51:31.498Z,82.08
2023-03-31T11:56:40.978Z,81.84
2023-03-31T12:01:52.522Z,81.01
2023-03-31T12:07:02.685Z,80.66
2023-03-31T12:12:12.949Z,80.86
2023-03-31T12:17:19.670Z,81.82
2023-03-31T12:22:27.363Z,82.80
2023-03-31T12:27:39.222Z,82.10
2023-03-31T12:32:47.366Z,83.43
2023-03-31T12:38:14.430Z,82.50
2023-03-31T12:43:46.209Z,83.94
2023-03-31T12:49:10.772Z,84.34
2023-03-31T12:54:34.639Z,82.72
2023-03-31T12:59:41.022Z,83.27
2023-03-31T13:04:44.403Z,84.79
2023-03-31T13:09:49.681Z,83.68
2023-03-31T13:14:56.278Z,84.82
2023-03-31T13:20:18.371Z,85.31
2023-03-31T13:25:50.084Z,84.03
2023-03-31T13:31:00.394Z,84.27
2023-03-31T13:36:36.414Z,85.98
2023-03-31T13:41:52.991Z,87.08
2023-03-31T13:47:29.460Z,86.03
2023-03-31T13:52:47.694Z,85.31
2023-03-31T13:58:33.652Z,86.43
2023-03-31T14:03:55.589Z,86.63
2023-03-31T14:09:05.912Z,85.95
2023-03-31T14:14:14.379Z,86.75
2023-03-31T14:19:35.072Z,87.50
2023-03-31T14:24:45.078Z,86.48
2023-03-31T14:29:58.927Z,86.95
2023-03-31T14:35:21.503Z,86.66
2023-03-31T14:40:26.542Z,86.02
2023-03-31T14:45:33.033Z,85.71
2023-03-31T14:50:37.579Z,87.17
2023-03-31T14:55:54.858Z,86.80
2023-03-31T15:01:03.614Z,87.10
2023-03-31T15:06:10.130Z,86.02
2023-03-31T15:11:19.329Z,85.18
2023-03-31T15:16:31.910Z,81.42
2023-03-31T15:21:39.477Z,79.72
2023-03-31T15:26:47.113Z,76.82
2023-03-31T15:31:51.423Z,77.21
2023-03-31T15:36:58.301Z,75.23
2023-03-31T15:42:04.226Z,77.70
2023-03-31T15:47:14.527Z,78.26
2023-03-31T15:52:27.481Z,81.35
2023-03-31T15:57:36.444Z,82.51
2023-03-31T16:02:44.251Z,80.86
2023-03-31T16:07:50.061Z,81.31
2023-03-31T16:12:58.339Z,83.33
2023-03-31T16:18:06.285Z,81.78
2023-03-31T16:23:19.671Z,81.96
2023-03-31T16:28:26.530Z,82.69
2023-03-31T16:33:31.573Z,78.89
2023-03-31T16:38:36.906Z,75.65
2023-03-31T16:43:40.605Z,70.89
2023-03-31T16:48:44.260Z,69.92
2023-03-31T16:53:50.073Z,72.75
2023-03-31T16:58:53.730Z,72.70
2023-03-31T17:03:58.166Z,74.78
2023-03-31T17:09:03.511Z,74.89
2023-03-31T17:14:07.147Z,76.37
2023-03-31T17:19:10.765Z,74.12
2023-03-31T17:24:16.058Z,73.51
2023-03-31T17:29:19.789Z,73.28
2023-03-31T17:34:23.595Z,72.15
2023-03-31T17:39:29.018Z,71.26
2023-03-31T17:44:32.727Z,66.96
2023-03-31T17:49:36.404Z,63.72
2023-03-31T17:54:41.748Z,65.66
2023-03-31T17:59:45.423Z,64.48
2023-03-31T18:04:49.125Z,65.21
2023-03-31T18:09:54.530Z,64.21
2023-03-31T18:14:58.182Z,63.03
2023-03-31T18:20:01.851Z,63.66
2023-03-31T18:25:08.246Z,62.19
2023-03-31T18:30:13.053Z,63.35
2023-03-31T18:35:16.934Z,62.88
2023-03-31T18:40:22.288Z,61.75
2023-03-31T18:45:25.993Z,60.96
2023-03-31T18:50:29.636Z,61.29
2023-03-31T18:55:34.926Z,61.83
2023-03-31T19:00:38.654Z,63.49
2023-03-31T19:05:42.842Z,63.19
2023-03-31T19:10:48.140Z,62.41
2023-03-31T19:15:51.802Z,61.99
2023-03-31T19:20:55.475Z,62.11
2023-03-31T19:26:00.812Z,61.71
2023-03-31T19:31:05.821Z,62.86
2023-03-31T19:36:10.075Z,62.17
2023-03-31T19:41:15.382Z,61.54
2023-03-31T19:46:19.168Z,61.28
2023-03-31T19:51:22.874Z,58.82
2023-03-31T19:56:28.187Z,57.77
2023-03-31T20:01:31.916Z,57.48
2023-03-31T20:06:35.893Z,57.97
2023-03-31T20:11:41.289Z,58.02
2023-03-31T20:16:44.936Z,57.56
2023-03-31T20:21:53.308Z,57.30
2023-03-31T20:26:59.613Z,56.70
2023-03-31T20:32:03.273Z,57.62
2023-03-31T20:37:06.930Z,55.77
2023-03-31T20:42:12.218Z,56.11
2023-03-31T20:47:15.895Z,56.12
2023-03-31T20:52:19.561Z,55.75
2023-03-31T20:57:24.924Z,53.25
2023-03-31T21:02:28.620Z,54.72
2023-03-31T21:07:32.250Z,52.64
2023-03-31T21:12:38.467Z,53.20
2023-03-31T21:17:42.141Z,51.84
2023-03-31T21:22:45.836Z,53.13
2023-03-31T21:27:51.259Z,54.92
2023-03-31T21:32:54.953Z,53.58
2023-03-31T21:37:58.639Z,53.08
2023-03-31T21:43:03.943Z,51.00
2023-03-31T21:48:09.482Z,51.56
2023-03-31T21:53:13.487Z,48.63
2023-03-31T21:58:18.849Z,48.64
2023-03-31T22:03:27.775Z,48.46
2023-03-31T22:08:32.263Z,46.62
2023-03-31T22:13:37.832Z,46.79
2023-03-31T22:18:41.472Z,44.33
2023-03-31T22:23:45.358Z,44.44
2023-03-31T22:28:51.033Z,43.94
2023-03-31T22:33:54.852Z,43.68
2023-03-31T22:38:58.817Z,43.96
2023-03-31T22:44:04.246Z,42.99
2023-03-31T22:49:08.003Z,41.61
2023-03-31T22:54:14.346Z,42.60
2023-03-31T22:59:19.662Z,40.82
2023-03-31T23:04:23.544Z,42.28
2023-03-31T23:09:27.355Z,42.12
2023-03-31T23:14:32.673Z,41.34
2023-03-31T23:19:36.445Z,42.25
2023-03-31T23:24:40.292Z,42.62
2023-03-31T23:29:47.586Z,41.38
2023-03-31T23:34:51.226Z,42.79
2023-03-31T23:39:54.822Z,43.85
2023-03-31T23:45:00.180Z,43.93
2023-03-31T23:50:03.883Z,44.36
2023-03-31T23:55:07.866Z,44.85
